sensor_id;sensor_type;location;lat;lon;timestamp;P1;P2;P0
71794;PMS7003;59641;45.188;5.712;2023-04-03T00:01:05;1.00;1.00;0.00
71794;PMS7003;59641;45.188;5.712;2023-04-03T00:03:31;0.25;0.00;0.00
71794;PMS7003;59641;45.188;5.712;2023-04-03T00:05:57;0.00;0.00;0.00
71794;PMS7003;59641;45.188;5.712;2023-04-03T00:08:22;1.25;0.00;0.00
71794;PMS7003;59641;45.188;5.712;2023-04-03T00:10:48;1.50;1.50;0.50
71794;PMS7003;59641;45.188;5.712;2023-04-03T00:13:13;0.00;0.00;0.00
71794;PMS7003;59641;45.188;5.712;2023-04-03T00:15:39;0.00;0.00;0.00
71794;PMS7003;59641;45.188;5.712;2023-04-03T00:18:05;0.00;0.00;0.00
71794;PMS7003;59641;45.188;5.712;2023-04-03T00:20:32;0.00;0.00;0.00
71794;PMS7003;59641;45.188;5.712;2023-04-03T00:22:58;1.20;1.20;0.40
71794;PMS7003;59641;45.188;5.712;2023-04-03T00:25:25;0.80;0.80;0.00
71794;PMS7003;59641;45.188;5.712;2023-04-03T00:27:50;0.00;0.00;0.00
71794;PMS7003;59641;45.188;5.712;2023-04-03T00:30:17;0.00;0.00;0.00
71794;PMS7003;59641;45.188;5.712;2023-04-03T00:32:43;0.00;0.00;0.00
71794;PMS7003;59641;45.188;5.712;2023-04-03T00:35:09;0.00;0.00;0.00
71794;PMS7003;59641;45.188;5.712;2023-04-03T00:37:35;0.00;0.00;0.00
71794;PMS7003;59641;45.188;5.712;2023-04-03T00:40:01;0.00;0.00;0.00
71794;PMS7003;59641;45.188;5.712;2023-04-03T00:42:26;1.00;1.00;0.25
71794;PMS7003;59641;45.188;5.712;2023-04-03T00:47:20;1.00;1.00;0.00
71794;PMS7003;59641;45.188;5.712;2023-04-03T00:49:45;0.00;0.00;0.00
71794;PMS7003;59641;45.188;5.712;2023-04-03T00:52:11;0.00;0.00;0.00
71794;PMS7003;59641;45.188;5.712;2023-04-03T00:54:41;0.00;0.00;0.00
71794;PMS7003;59641;45.188;5.712;2023-04-03T00:57:09;0.00;0.00;0.00
71794;PMS7003;59641;45.188;5.712;2023-04-03T00:59:36;0.00;0.00;0.00
71794;PMS7003;59641;45.188;5.712;2023-04-03T01:02:05;0.00;0.00;0.00
71794;PMS7003;59641;45.188;5.712;2023-04-03T01:04:35;0.25;0.25;0.00
71794;PMS7003;59641;45.188;5.712;2023-04-03T01:07:10;0.00;0.00;0.00
71794;PMS7003;59641;45.188;5.712;2023-04-03T01:09:44;1.20;1.00;1.00
71794;PMS7003;59641;45.188;5.712;2023-04-03T01:12:15;0.00;0.00;0.00
71794;PMS7003;59641;45.188;5.712;2023-04-03T01:14:41;0.00;0.00;0.00
71794;PMS7003;59641;45.188;5.712;2023-04-03T01:17:26;0.00;0.00;0.00
71794;PMS7003;59641;45.188;5.712;2023-04-03T01:25:34;0.60;0.60;0.00
71794;PMS7003;59641;45.188;5.712;2023-04-03T01:28:20;0.80;0.80;0.00
71794;PMS7003;59641;45.188;5.712;2023-04-03T01:33:23;0.60;0.60;0.20
71794;PMS7003;59641;45.188;5.712;2023-04-03T01:35:48;0.00;0.00;0.00
71794;PMS7003;59641;45.188;5.712;2023-04-03T01:38:14;1.00;1.00;1.00
71794;PMS7003;59641;45.188;5.712;2023-04-03T01:40:39;0.50;0.50;0.00
71794;PMS7003;59641;45.188;5.712;2023-04-03T01:43:05;1.00;1.00;0.00
71794;PMS7003;59641;45.188;5.712;2023-04-03T01:45:30;0.00;0.00;0.00
71794;PMS7003;59641;45.188;5.712;2023-04-03T01:47:56;0.75;0.75;0.25
71794;PMS7003;59641;45.188;5.712;2023-04-03T01:50:21;0.00;0.00;0.00
71794;PMS7003;59641;45.188;5.712;2023-04-03T01:52:46;0.00;0.00;0.00
71794;PMS7003;59641;45.188;5.712;2023-04-03T01:55:12;0.00;0.00;0.00
71794;PMS7003;59641;45.188;5.712;2023-04-03T01:57:37;1.00;1.00;0.00
71794;PMS7003;59641;45.188;5.712;2023-04-03T02:00:03;1.00;1.00;1.00
71794;PMS7003;59641;45.188;5.712;2023-04-03T02:02:28;1.00;1.00;0.00
71794;PMS7003;59641;45.188;5.712;2023-04-03T02:04:54;1.25;1.00;1.00
71794;PMS7003;59641;45.188;5.712;2023-04-03T02:07:19;0.00;0.00;0.00
71794;PMS7003;59641;45.188;5.712;2023-04-03T02:09:45;1.00;1.00;1.00
71794;PMS7003;59641;45.188;5.712;2023-04-03T02:12:10;0.75;0.75;0.00
71794;PMS7003;59641;45.188;5.712;2023-04-03T02:14:36;0.75;0.75;0.75
71794;PMS7003;59641;45.188;5.712;2023-04-03T02:17:01;1.00;1.00;1.00
71794;PMS7003;59641;45.188;5.712;2023-04-03T02:19:30;1.00;1.00;0.60
71794;PMS7003;59641;45.188;5.712;2023-04-03T02:21:56;1.00;1.00;1.00
71794;PMS7003;59641;45.188;5.712;2023-04-03T02:24:21;1.50;0.00;0.00
71794;PMS7003;59641;45.188;5.712;2023-04-03T02:26:46;1.50;1.00;1.00
71794;PMS7003;59641;45.188;5.712;2023-04-03T02:29:12;0.25;0.25;0.00
71794;PMS7003;59641;45.188;5.712;2023-04-03T02:31:37;1.50;1.50;0.50
71794;PMS7003;59641;45.188;5.712;2023-04-03T02:34:02;1.25;0.25;0.25
71794;PMS7003;59641;45.188;5.712;2023-04-03T02:36:28;2.00;2.00;1.00
71794;PMS7003;59641;45.188;5.712;2023-04-03T02:38:53;0.50;0.50;0.50
71794;PMS7003;59641;45.188;5.712;2023-04-03T02:41:18;1.00;1.00;1.00
71794;PMS7003;59641;45.188;5.712;2023-04-03T02:43:45;1.00;1.00;1.00
71794;PMS7003;59641;45.188;5.712;2023-04-03T02:46:11;0.00;0.00;0.00
71794;PMS7003;59641;45.188;5.712;2023-04-03T02:48:36;3.00;1.00;0.00
71794;PMS7003;59641;45.188;5.712;2023-04-03T02:51:02;0.25;0.25;0.00
71794;PMS7003;59641;45.188;5.712;2023-04-03T02:53:27;0.75;0.75;0.00
71794;PMS7003;59641;45.188;5.712;2023-04-03T02:55:53;0.00;0.00;0.00
71794;PMS7003;59641;45.188;5.712;2023-04-03T02:58:18;0.00;0.00;0.00
71794;PMS7003;59641;45.188;5.712;2023-04-03T03:00:43;0.00;0.00;0.00
71794;PMS7003;59641;45.188;5.712;2023-04-03T03:03:09;1.50;1.50;1.00
71794;PMS7003;59641;45.188;5.712;2023-04-03T03:05:34;0.00;0.00;0.00
71794;PMS7003;59641;45.188;5.712;2023-04-03T03:07:59;1.00;1.00;0.50
71794;PMS7003;59641;45.188;5.712;2023-04-03T03:10:25;1.00;1.00;1.00
71794;PMS7003;59641;45.188;5.712;2023-04-03T03:12:50;0.25;0.25;0.00
71794;PMS7003;59641;45.188;5.712;2023-04-03T03:15:16;0.00;0.00;0.00
71794;PMS7003;59641;45.188;5.712;2023-04-03T03:17:42;1.00;1.00;0.00
71794;PMS7003;59641;45.188;5.712;2023-04-03T03:20:08;1.00;1.00;1.00
71794;PMS7003;59641;45.188;5.712;2023-04-03T03:22:33;1.00;1.00;1.00
71794;PMS7003;59641;45.188;5.712;2023-04-03T03:25:00;0.80;0.80;0.80
71794;PMS7003;59641;45.188;5.712;2023-04-03T03:27:26;2.00;2.00;1.00
71794;PMS7003;59641;45.188;5.712;2023-04-03T03:29:51;0.25;0.25;0.00
71794;PMS7003;59641;45.188;5.712;2023-04-03T03:32:17;2.00;0.25;0.00
71794;PMS7003;59641;45.188;5.712;2023-04-03T03:34:42;1.00;1.00;1.00
71794;PMS7003;59641;45.188;5.712;2023-04-03T03:37:08;0.00;0.00;0.00
71794;PMS7003;59641;45.188;5.712;2023-04-03T03:39:33;1.75;1.75;1.00
71794;PMS7003;59641;45.188;5.712;2023-04-03T03:41:58;1.00;1.00;1.00
71794;PMS7003;59641;45.188;5.712;2023-04-03T03:44:23;1.75;1.75;1.00
71794;PMS7003;59641;45.188;5.712;2023-04-03T03:46:49;1.00;1.00;1.00
71794;PMS7003;59641;45.188;5.712;2023-04-03T03:49:14;1.00;1.00;1.00
71794;PMS7003;59641;45.188;5.712;2023-04-03T03:51:39;2.00;2.00;2.00
71794;PMS7003;59641;45.188;5.712;2023-04-03T03:54:05;1.50;1.50;1.00
71794;PMS7003;59641;45.188;5.712;2023-04-03T03:56:31;1.00;1.00;1.00
71794;PMS7003;59641;45.188;5.712;2023-04-03T03:58:56;1.00;1.00;1.00
71794;PMS7003;59641;45.188;5.712;2023-04-03T04:01:22;2.00;2.00;1.00
71794;PMS7003;59641;45.188;5.712;2023-04-03T04:03:48;3.00;3.00;2.00
71794;PMS7003;59641;45.188;5.712;2023-04-03T04:06:14;1.00;1.00;1.00
71794;PMS7003;59641;45.188;5.712;2023-04-03T04:08:40;3.00;1.00;1.00
71794;PMS7003;59641;45.188;5.712;2023-04-03T04:11:05;3.00;1.50;1.00
71794;PMS7003;59641;45.188;5.712;2023-04-03T04:13:31;2.25;2.25;2.00
71794;PMS7003;59641;45.188;5.712;2023-04-03T04:15:56;3.00;3.00;2.00
71794;PMS7003;59641;45.188;5.712;2023-04-03T04:18:21;4.00;4.00;2.00
71794;PMS7003;59641;45.188;5.712;2023-04-03T04:20:47;3.00;3.00;2.00
71794;PMS7003;59641;45.188;5.712;2023-04-03T04:23:13;2.75;2.75;2.00
71794;PMS7003;59641;45.188;5.712;2023-04-03T04:25:39;5.00;2.75;2.00
71794;PMS7003;59641;45.188;5.712;2023-04-03T04:28:05;3.00;3.00;2.00
71794;PMS7003;59641;45.188;5.712;2023-04-03T04:30:30;2.60;2.20;2.00
71794;PMS7003;59641;45.188;5.712;2023-04-03T04:32:56;3.75;3.75;2.00
71794;PMS7003;59641;45.188;5.712;2023-04-03T04:35:21;3.00;3.00;2.00
71794;PMS7003;59641;45.188;5.712;2023-04-03T04:37:46;2.00;2.00;2.00
71794;PMS7003;59641;45.188;5.712;2023-04-03T04:40:12;3.00;3.00;3.00
71794;PMS7003;59641;45.188;5.712;2023-04-03T04:42:37;4.00;4.00;3.00
71794;PMS7003;59641;45.188;5.712;2023-04-03T04:45:03;2.75;2.75;2.00
71794;PMS7003;59641;45.188;5.712;2023-04-03T04:47:28;5.50;3.00;3.00
71794;PMS7003;59641;45.188;5.712;2023-04-03T04:49:54;2.25;2.25;2.00
71794;PMS7003;59641;45.188;5.712;2023-04-03T04:52:20;4.25;4.25;2.75
71794;PMS7003;59641;45.188;5.712;2023-04-03T04:54:45;4.00;4.00;3.00
71794;PMS7003;59641;45.188;5.712;2023-04-03T04:57:11;4.00;4.00;2.00
71794;PMS7003;59641;45.188;5.712;2023-04-03T04:59:36;4.25;4.00;3.00
71794;PMS7003;59641;45.188;5.712;2023-04-03T05:02:01;3.00;3.00;3.00
71794;PMS7003;59641;45.188;5.712;2023-04-03T05:04:27;4.00;2.75;2.25
71794;PMS7003;59641;45.188;5.712;2023-04-03T05:06:52;3.00;2.00;2.00
71794;PMS7003;59641;45.188;5.712;2023-04-03T05:09:17;4.50;4.25;2.25
71794;PMS7003;59641;45.188;5.712;2023-04-03T05:11:44;5.00;5.00;4.00
71794;PMS7003;59641;45.188;5.712;2023-04-03T05:14:10;3.25;3.25;2.50
71794;PMS7003;59641;45.188;5.712;2023-04-03T05:16:36;5.00;4.00;3.00
71794;PMS7003;59641;45.188;5.712;2023-04-03T05:19:01;5.25;4.00;3.00
71794;PMS7003;59641;45.188;5.712;2023-04-03T05:21:27;4.00;4.00;3.00
71794;PMS7003;59641;45.188;5.712;2023-04-03T05:23:56;4.00;3.20;3.00
71794;PMS7003;59641;45.188;5.712;2023-04-03T05:26:22;4.00;4.00;2.75
71794;PMS7003;59641;45.188;5.712;2023-04-03T05:28:47;4.00;4.00;2.50
71794;PMS7003;59641;45.188;5.712;2023-04-03T05:31:13;3.00;3.00;3.00
71794;PMS7003;59641;45.188;5.712;2023-04-03T05:33:38;5.50;5.00;2.50
71794;PMS7003;59641;45.188;5.712;2023-04-03T05:36:04;3.50;3.50;2.75
71794;PMS7003;59641;45.188;5.712;2023-04-03T05:38:30;4.00;4.00;2.75
71794;PMS7003;59641;45.188;5.712;2023-04-03T05:40:55;3.25;3.25;1.50
71794;PMS7003;59641;45.188;5.712;2023-04-03T05:43:21;4.00;4.00;3.00
71794;PMS7003;59641;45.188;5.712;2023-04-03T05:45:47;5.00;3.00;3.00
71794;PMS7003;59641;45.188;5.712;2023-04-03T05:48:12;3.50;3.50;2.00
71794;PMS7003;59641;45.188;5.712;2023-04-03T05:50:37;5.00;4.00;3.50
71794;PMS7003;59641;45.188;5.712;2023-04-03T05:53:06;3.20;3.20;2.00
71794;PMS7003;59641;45.188;5.712;2023-04-03T05:55:32;5.25;4.50;3.50
71794;PMS7003;59641;45.188;5.712;2023-04-03T05:57:57;5.75;5.75;4.75
71794;PMS7003;59641;45.188;5.712;2023-04-03T06:00:22;7.00;5.50;3.75
71794;PMS7003;59641;45.188;5.712;2023-04-03T06:02:48;3.00;3.00;3.00
71794;PMS7003;59641;45.188;5.712;2023-04-03T06:05:14;4.00;4.00;3.25
71794;PMS7003;59641;45.188;5.712;2023-04-03T06:07:39;4.00;4.00;3.00
71794;PMS7003;59641;45.188;5.712;2023-04-03T06:10:05;5.00;4.25;3.25
71794;PMS7003;59641;45.188;5.712;2023-04-03T06:12:31;4.80;4.80;3.20
71794;PMS7003;59641;45.188;5.712;2023-04-03T06:14:57;4.00;4.00;3.25
71794;PMS7003;59641;45.188;5.712;2023-04-03T06:17:23;4.00;3.75;3.00
71794;PMS7003;59641;45.188;5.712;2023-04-03T06:19:48;5.00;5.00;4.00
71794;PMS7003;59641;45.188;5.712;2023-04-03T06:22:14;5.25;5.00;3.00
71794;PMS7003;59641;45.188;5.712;2023-04-03T06:24:40;3.00;3.00;3.00
71794;PMS7003;59641;45.188;5.712;2023-04-03T06:27:06;3.75;3.00;3.00
71794;PMS7003;59641;45.188;5.712;2023-04-03T06:29:32;6.25;6.25;5.00
71794;PMS7003;59641;45.188;5.712;2023-04-03T06:31:57;7.25;6.50;5.00
71794;PMS7003;59641;45.188;5.712;2023-04-03T06:34:23;4.25;4.25;4.00
71794;PMS7003;59641;45.188;5.712;2023-04-03T06:36:48;6.75;5.50;4.00
71794;PMS7003;59641;45.188;5.712;2023-04-03T06:39:20;4.25;4.25;3.75
71794;PMS7003;59641;45.188;5.712;2023-04-03T06:41:47;5.80;5.00;3.60
71794;PMS7003;59641;45.188;5.712;2023-04-03T06:44:13;6.00;4.75;3.75
71794;PMS7003;59641;45.188;5.712;2023-04-03T06:46:40;4.25;4.00;3.00
71794;PMS7003;59641;45.188;5.712;2023-04-03T06:49:06;2.50;2.50;2.00
71794;PMS7003;59641;45.188;5.712;2023-04-03T06:51:33;2.00;2.00;2.00
71794;PMS7003;59641;45.188;5.712;2023-04-03T06:53:59;2.00;2.00;2.00
71794;PMS7003;59641;45.188;5.712;2023-04-03T06:56:25;2.00;2.00;2.00
71794;PMS7003;59641;45.188;5.712;2023-04-03T06:58:52;2.00;2.00;1.40
71794;PMS7003;59641;45.188;5.712;2023-04-03T07:01:20;1.80;1.80;1.00
71794;PMS7003;59641;45.188;5.712;2023-04-03T07:03:46;1.60;1.60;1.00
71794;PMS7003;59641;45.188;5.712;2023-04-03T07:06:13;2.20;2.00;1.00
71794;PMS7003;59641;45.188;5.712;2023-04-03T07:08:40;1.00;1.00;1.00
71794;PMS7003;59641;45.188;5.712;2023-04-03T07:11:07;3.20;2.00;1.60
71794;PMS7003;59641;45.188;5.712;2023-04-03T07:13:33;2.00;2.00;1.00
71794;PMS7003;59641;45.188;5.712;2023-04-03T07:15:59;1.60;1.60;1.00
71794;PMS7003;59641;45.188;5.712;2023-04-03T07:18:25;0.75;0.75;0.00
71794;PMS7003;59641;45.188;5.712;2023-04-03T07:20:51;2.00;2.00;1.00
71794;PMS7003;59641;45.188;5.712;2023-04-03T07:23:17;2.00;2.00;1.00
71794;PMS7003;59641;45.188;5.712;2023-04-03T07:25:43;2.75;2.00;2.00
71794;PMS7003;59641;45.188;5.712;2023-04-03T07:28:13;1.60;1.60;1.00
71794;PMS7003;59641;45.188;5.712;2023-04-03T07:31:21;2.60;2.60;2.00
71794;PMS7003;59641;45.188;5.712;2023-04-03T07:33:29;2.00;1.40;1.00
71794;PMS7003;59641;45.188;5.712;2023-04-03T07:35:55;3.00;2.00;2.00
71794;PMS7003;59641;45.188;5.712;2023-04-03T07:38:21;2.00;2.00;1.00
71794;PMS7003;59641;45.188;5.712;2023-04-03T07:40:47;2.75;2.75;2.00
71794;PMS7003;59641;45.188;5.712;2023-04-03T07:43:14;2.00;2.00;2.00
71794;PMS7003;59641;45.188;5.712;2023-04-03T07:45:40;2.40;2.00;2.00
71794;PMS7003;59641;45.188;5.712;2023-04-03T07:48:06;2.00;2.00;2.00
71794;PMS7003;59641;45.188;5.712;2023-04-03T07:50:31;2.00;2.00;2.00
71794;PMS7003;59641;45.188;5.712;2023-04-03T07:52:57;1.75;1.75;1.75
71794;PMS7003;59641;45.188;5.712;2023-04-03T07:55:23;5.00;3.00;2.00
71794;PMS7003;59641;45.188;5.712;2023-04-03T07:57:48;2.25;2.25;2.00
71794;PMS7003;59641;45.188;5.712;2023-04-03T08:00:14;2.75;2.75;2.50
71794;PMS7003;59641;45.188;5.712;2023-04-03T08:02:39;3.00;3.00;3.00
71794;PMS7003;59641;45.188;5.712;2023-04-03T08:05:05;4.00;3.00;2.00
71794;PMS7003;59641;45.188;5.712;2023-04-03T08:07:30;3.75;3.75;3.00
71794;PMS7003;59641;45.188;5.712;2023-04-03T08:09:56;3.00;3.00;3.00
71794;PMS7003;59641;45.188;5.712;2023-04-03T08:12:22;3.00;3.00;2.75
71794;PMS7003;59641;45.188;5.712;2023-04-03T08:14:47;3.50;3.50;2.50
71794;PMS7003;59641;45.188;5.712;2023-04-03T08:17:12;4.00;4.00;3.00
71794;PMS7003;59641;45.188;5.712;2023-04-03T08:19:38;3.25;3.25;3.00
71794;PMS7003;59641;45.188;5.712;2023-04-03T08:22:05;4.25;4.25;3.00
71794;PMS7003;59641;45.188;5.712;2023-04-03T08:24:34;4.00;4.00;4.00
71794;PMS7003;59641;45.188;5.712;2023-04-03T08:26:59;5.60;5.60;5.00
71794;PMS7003;59641;45.188;5.712;2023-04-03T08:29:25;5.00;5.00;4.60
71794;PMS7003;59641;45.188;5.712;2023-04-03T08:31:51;6.00;6.00;5.00
71794;PMS7003;59641;45.188;5.712;2023-04-03T08:34:17;5.00;5.00;4.00
71794;PMS7003;59641;45.188;5.712;2023-04-03T08:36:43;6.00;5.00;4.00
71794;PMS7003;59641;45.188;5.712;2023-04-03T08:39:09;8.00;5.00;4.00
71794;PMS7003;59641;45.188;5.712;2023-04-03T08:41:36;6.00;4.00;3.20
71794;PMS7003;59641;45.188;5.712;2023-04-03T08:44:13;6.00;6.00;4.00
71794;PMS7003;59641;45.188;5.712;2023-04-03T08:50:17;6.00;6.00;5.20
71794;PMS7003;59641;45.188;5.712;2023-04-03T08:55:21;8.00;8.00;6.00
71794;PMS7003;59641;45.188;5.712;2023-04-03T08:57:51;6.00;6.00;5.00
71794;PMS7003;59641;45.188;5.712;2023-04-03T09:00:25;7.80;7.80;6.00
71794;PMS7003;59641;45.188;5.712;2023-04-03T09:02:54;6.50;6.50;5.00
71794;PMS7003;59641;45.188;5.712;2023-04-03T09:05:41;5.75;4.00;3.00
71794;PMS7003;59641;45.188;5.712;2023-04-03T09:10:45;5.50;4.00;3.00
71794;PMS7003;59641;45.188;5.712;2023-04-03T09:16:06;4.25;4.25;3.00
71794;PMS7003;59641;45.188;5.712;2023-04-03T09:18:53;5.00;5.00;4.60
71794;PMS7003;59641;45.188;5.712;2023-04-03T09:21:38;6.25;6.00;5.00
71794;PMS7003;59641;45.188;5.712;2023-04-03T09:24:07;6.75;6.75;5.75
71794;PMS7003;59641;45.188;5.712;2023-04-03T09:29:20;2.80;2.00;2.00
71794;PMS7003;59641;45.188;5.712;2023-04-03T09:31:50;5.20;5.20;4.80
71794;PMS7003;59641;45.188;5.712;2023-04-03T09:34:27;5.00;5.00;5.00
71794;PMS7003;59641;45.188;5.712;2023-04-03T09:36:59;7.25;6.50;5.50
71794;PMS7003;59641;45.188;5.712;2023-04-03T09:39:30;5.20;5.20;5.00
71794;PMS7003;59641;45.188;5.712;2023-04-03T09:42:04;7.00;7.00;5.00
71794;PMS7003;59641;45.188;5.712;2023-04-03T09:44:52;5.00;5.00;4.00
71794;PMS7003;59641;45.188;5.712;2023-04-03T09:47:35;8.25;8.25;5.50
71794;PMS7003;59641;45.188;5.712;2023-04-03T09:52:40;10.50;9.00;7.00
71794;PMS7003;59641;45.188;5.712;2023-04-03T09:55:16;6.00;6.00;5.00
71794;PMS7003;59641;45.188;5.712;2023-04-03T09:57:52;7.00;6.75;6.00
71794;PMS7003;59641;45.188;5.712;2023-04-03T10:00:20;5.00;5.00;4.00
71794;PMS7003;59641;45.188;5.712;2023-04-03T10:02:58;6.00;6.00;5.25
71794;PMS7003;59641;45.188;5.712;2023-04-03T10:05:28;6.25;6.25;6.00
71794;PMS7003;59641;45.188;5.712;2023-04-03T10:08:24;4.00;4.00;3.00
71794;PMS7003;59641;45.188;5.712;2023-04-03T10:13:31;5.80;5.00;4.20
71794;PMS7003;59641;45.188;5.712;2023-04-03T10:16:01;8.25;8.25;6.75
71794;PMS7003;59641;45.188;5.712;2023-04-03T10:24:18;5.60;4.80;3.80
71794;PMS7003;59641;45.188;5.712;2023-04-03T10:27:15;7.00;4.00;3.25
71794;PMS7003;59641;45.188;5.712;2023-04-03T10:29:49;4.50;4.00;3.00
71794;PMS7003;59641;45.188;5.712;2023-04-03T10:37:51;5.25;5.25;4.50
71794;PMS7003;59641;45.188;5.712;2023-04-03T10:40:25;5.00;4.75;4.00
71794;PMS7003;59641;45.188;5.712;2023-04-03T10:43:45;4.80;4.00;3.20
71794;PMS7003;59641;45.188;5.712;2023-04-03T10:46:15;4.20;4.20;3.80
71794;PMS7003;59641;45.188;5.712;2023-04-03T10:57:47;3.80;3.80;3.00
71794;PMS7003;59641;45.188;5.712;2023-04-03T11:00:15;5.50;5.50;5.00
71794;PMS7003;59641;45.188;5.712;2023-04-03T11:03:01;6.50;6.25;5.00
71794;PMS7003;59641;45.188;5.712;2023-04-03T11:05:37;7.75;7.00;5.00
71794;PMS7003;59641;45.188;5.712;2023-04-03T11:08:13;3.60;3.00;2.80
71794;PMS7003;59641;45.188;5.712;2023-04-03T11:10:44;3.75;3.75;3.00
71794;PMS7003;59641;45.188;5.712;2023-04-03T11:13:21;3.75;3.75;3.00
71794;PMS7003;59641;45.188;5.712;2023-04-03T11:15:51;4.80;3.80;2.80
71794;PMS7003;59641;45.188;5.712;2023-04-03T11:18:21;4.60;4.60;3.80
71794;PMS7003;59641;45.188;5.712;2023-04-03T11:21:15;4.50;4.50;4.00
71794;PMS7003;59641;45.188;5.712;2023-04-03T11:23:51;3.25;3.25;3.00
71794;PMS7003;59641;45.188;5.712;2023-04-03T11:26:22;3.20;2.20;1.80
71794;PMS7003;59641;45.188;5.712;2023-04-03T11:28:53;1.60;1.60;1.40
71794;PMS7003;59641;45.188;5.712;2023-04-03T11:37:21;3.20;2.20;1.80
71794;PMS7003;59641;45.188;5.712;2023-04-03T11:39:56;1.80;1.80;1.80
71794;PMS7003;59641;45.188;5.712;2023-04-03T11:42:38;4.25;3.50;3.00
71794;PMS7003;59641;45.188;5.712;2023-04-03T11:45:31;2.00;2.00;2.00
71794;PMS7003;59641;45.188;5.712;2023-04-03T11:48:02;1.80;1.80;1.80
71794;PMS7003;59641;45.188;5.712;2023-04-03T11:53:01;3.20;3.20;2.20
71794;PMS7003;59641;45.188;5.712;2023-04-03T12:13:42;3.20;2.60;2.60
71794;PMS7003;59641;45.188;5.712;2023-04-03T12:26:36;2.75;2.75;2.75
71794;PMS7003;59641;45.188;5.712;2023-04-03T12:29:13;2.40;2.40;2.20
71794;PMS7003;59641;45.188;5.712;2023-04-03T12:37:35;4.25;4.25;2.75
71794;PMS7003;59641;45.188;5.712;2023-04-03T12:43:10;2.75;2.75;2.50
71794;PMS7003;59641;45.188;5.712;2023-04-03T12:48:37;3.80;3.80;3.40
71794;PMS7003;59641;45.188;5.712;2023-04-03T12:51:09;3.00;3.00;2.00
71794;PMS7003;59641;45.188;5.712;2023-04-03T12:53:40;4.60;4.60;3.00
71794;PMS7003;59641;45.188;5.712;2023-04-03T12:56:26;4.00;3.50;3.00
71794;PMS7003;59641;45.188;5.712;2023-04-03T12:58:55;5.20;5.20;4.00
71794;PMS7003;59641;45.188;5.712;2023-04-03T13:01:37;4.60;4.60;4.00
71794;PMS7003;59641;45.188;5.712;2023-04-03T13:04:02;4.50;4.50;3.75
71794;PMS7003;59641;45.188;5.712;2023-04-03T13:06:47;10.00;6.00;5.00
71794;PMS7003;59641;45.188;5.712;2023-04-03T13:09:32;8.00;8.00;6.00
71794;PMS7003;59641;45.188;5.712;2023-04-03T13:11:59;8.00;6.40;5.40
71794;PMS7003;59641;45.188;5.712;2023-04-03T13:14:34;6.50;6.50;6.00
71794;PMS7003;59641;45.188;5.712;2023-04-03T13:17:04;6.00;5.25;4.00
71794;PMS7003;59641;45.188;5.712;2023-04-03T13:19:37;5.50;5.50;5.50
71794;PMS7003;59641;45.188;5.712;2023-04-03T13:22:04;8.00;7.25;6.25
71794;PMS7003;59641;45.188;5.712;2023-04-03T13:24:34;6.00;6.00;5.00
71794;PMS7003;59641;45.188;5.712;2023-04-03T13:27:03;7.00;7.00;5.00
71794;PMS7003;59641;45.188;5.712;2023-04-03T13:29:30;6.40;6.40;5.40
71794;PMS7003;59641;45.188;5.712;2023-04-03T13:31:59;7.00;7.00;6.00
71794;PMS7003;59641;45.188;5.712;2023-04-03T13:34:27;8.80;7.40;6.60
71794;PMS7003;59641;45.188;5.712;2023-04-03T13:36:55;7.25;7.25;6.75
71794;PMS7003;59641;45.188;5.712;2023-04-03T13:41:55;6.40;6.40;4.80
71794;PMS7003;59641;45.188;5.712;2023-04-03T13:47:01;6.00;6.00;4.50
71794;PMS7003;59641;45.188;5.712;2023-04-03T13:49:44;6.50;4.50;4.25
71794;PMS7003;59641;45.188;5.712;2023-04-03T13:52:27;6.75;6.75;5.25
71794;PMS7003;59641;45.188;5.712;2023-04-03T13:54:56;6.80;5.00;4.40
71794;PMS7003;59641;45.188;5.712;2023-04-03T13:57:23;8.00;7.75;5.75
71794;PMS7003;59641;45.188;5.712;2023-04-03T13:59:49;7.50;7.50;5.75
71794;PMS7003;59641;45.188;5.712;2023-04-03T14:02:21;7.50;7.50;6.75
71794;PMS7003;59641;45.188;5.712;2023-04-03T14:04:58;6.40;5.80;5.60
71794;PMS7003;59641;45.188;5.712;2023-04-03T14:07:26;6.75;6.75;5.75
71794;PMS7003;59641;45.188;5.712;2023-04-03T14:09:54;9.00;8.60;6.00
71794;PMS7003;59641;45.188;5.712;2023-04-03T14:12:36;7.50;7.50;6.00
71794;PMS7003;59641;45.188;5.712;2023-04-03T14:15:10;8.40;8.00;5.60
71794;PMS7003;59641;45.188;5.712;2023-04-03T14:17:42;11.50;10.00;8.25
71794;PMS7003;59641;45.188;5.712;2023-04-03T14:20:15;7.50;7.50;6.00
71794;PMS7003;59641;45.188;5.712;2023-04-03T14:22:43;8.20;8.20;6.80
71794;PMS7003;59641;45.188;5.712;2023-04-03T14:25:09;11.00;9.60;7.80
71794;PMS7003;59641;45.188;5.712;2023-04-03T14:27:37;7.50;7.50;6.50
71794;PMS7003;59641;45.188;5.712;2023-04-03T14:30:06;8.50;8.50;6.25
71794;PMS7003;59641;45.188;5.712;2023-04-03T14:32:34;9.40;9.40;6.20
71794;PMS7003;59641;45.188;5.712;2023-04-03T14:35:00;10.50;10.50;8.00
71794;PMS7003;59641;45.188;5.712;2023-04-03T14:37:27;11.00;10.25;7.25
71794;PMS7003;59641;45.188;5.712;2023-04-03T14:39:55;7.50;7.50;6.50
71794;PMS7003;59641;45.188;5.712;2023-04-03T14:42:24;8.75;8.25;7.50
71794;PMS7003;59641;45.188;5.712;2023-04-03T14:44:51;7.40;7.40;6.60
71794;PMS7003;59641;45.188;5.712;2023-04-03T14:47:21;8.50;8.50;6.50
71794;PMS7003;59641;45.188;5.712;2023-04-03T14:49:49;8.50;8.25;6.50
71794;PMS7003;59641;45.188;5.712;2023-04-03T14:52:18;7.25;7.00;6.50
71794;PMS7003;59641;45.188;5.712;2023-04-03T14:54:55;5.80;5.60;5.20
71794;PMS7003;59641;45.188;5.712;2023-04-03T14:57:22;11.25;9.00;6.75
71794;PMS7003;59641;45.188;5.712;2023-04-03T14:59:50;5.75;5.50;4.75
71794;PMS7003;59641;45.188;5.712;2023-04-03T15:02:26;9.25;9.00;6.75
71794;PMS7003;59641;45.188;5.712;2023-04-03T15:04:54;10.00;9.50;7.50
71794;PMS7003;59641;45.188;5.712;2023-04-03T15:07:21;12.75;10.00;7.75
71794;PMS7003;59641;45.188;5.712;2023-04-03T15:09:49;10.25;8.75;7.25
71794;PMS7003;59641;45.188;5.712;2023-04-03T15:12:15;9.40;9.40;7.00
71794;PMS7003;59641;45.188;5.712;2023-04-03T15:14:40;9.00;9.00;8.00
71794;PMS7003;59641;45.188;5.712;2023-04-03T15:17:06;7.25;7.00;6.00
71794;PMS7003;59641;45.188;5.712;2023-04-03T15:19:36;12.50;10.75;8.00
71794;PMS7003;59641;45.188;5.712;2023-04-03T15:22:03;10.40;9.20;8.00
71794;PMS7003;59641;45.188;5.712;2023-04-03T15:24:28;7.75;7.50;5.25
71794;PMS7003;59641;45.188;5.712;2023-04-03T15:26:54;9.25;9.25;7.25
71794;PMS7003;59641;45.188;5.712;2023-04-03T15:29:19;8.75;8.75;6.00
71794;PMS7003;59641;45.188;5.712;2023-04-03T15:31:45;8.75;7.25;6.25
71794;PMS7003;59641;45.188;5.712;2023-04-03T15:34:10;9.75;9.00;7.00
71794;PMS7003;59641;45.188;5.712;2023-04-03T15:36:35;7.50;7.50;6.50
71794;PMS7003;59641;45.188;5.712;2023-04-03T15:39:01;8.25;8.00;6.50
71794;PMS7003;59641;45.188;5.712;2023-04-03T15:41:26;6.50;5.50;4.50
71794;PMS7003;59641;45.188;5.712;2023-04-03T15:43:52;6.75;6.75;6.00
71794;PMS7003;59641;45.188;5.712;2023-04-03T15:46:17;7.50;6.75;5.50
71794;PMS7003;59641;45.188;5.712;2023-04-03T15:48:42;7.75;7.75;6.50
71794;PMS7003;59641;45.188;5.712;2023-04-03T15:51:09;7.75;7.75;5.50
71794;PMS7003;59641;45.188;5.712;2023-04-03T15:53:35;9.00;9.00;7.50
71794;PMS7003;59641;45.188;5.712;2023-04-03T15:56:00;9.50;9.50;8.00
71794;PMS7003;59641;45.188;5.712;2023-04-03T15:58:25;8.75;7.25;5.50
71794;PMS7003;59641;45.188;5.712;2023-04-03T16:00:51;7.50;6.75;5.75
71794;PMS7003;59641;45.188;5.712;2023-04-03T16:03:17;7.00;6.50;6.00
71794;PMS7003;59641;45.188;5.712;2023-04-03T16:05:44;4.25;4.00;3.75
71794;PMS7003;59641;45.188;5.712;2023-04-03T16:08:10;8.75;8.75;7.00
71794;PMS7003;59641;45.188;5.712;2023-04-03T16:10:36;8.40;7.80;6.20
71794;PMS7003;59641;45.188;5.712;2023-04-03T16:13:03;10.50;10.50;8.25